Latest Weather Observations for Coolangatta

IDN60801

Issued at 4:03 pm EDT Friday 20 October 2017 (issued every 30 minutes, with the page automatically refreshed every 10 minutes)

About weather observations | Map of weather stations | Latest weather observations for NSW | Other Formats
Station Details ID: 040717 Name: COOLANGATTA Lat: -28.17 Lon: 153.51 Height: 4.0 m
Data from the previous 72 hours. | See also: Recent months at Coolangatta
Date/Time
EDT
Temp
°C
App
Temp
°C
Dew
Point
°C
Rel
Hum
%
Delta-T
°C
Wind Press
QNH
hPa
Press
MSL
hPa
Rain since
9am
mm
Dir  Spd
km/h
Gust
km/h
Spd
kts
Gust
kts
20/04:00pm 24.4 21.7 16.6 61 4.8 N 26 32 14 17 1017.4 1017.4 0.0
20/03:30pm 24.3 21.7 16.8 63 4.6 N 26 32 14 17 1017.6 1017.6 0.0
20/03:00pm 24.8 22.6 16.8 61 4.9 N 24 30 13 16 1018.3 1018.3 0.0
20/02:30pm 23.8 21.5 15.6 60 4.9 N 22 28 12 15 1018.9 1018.9 0.0
20/02:00pm 24.8 23.0 17.0 62 4.8 N 22 28 12 15 1019.2 1019.2 0.0
20/01:30pm 24.5 21.8 15.7 58 5.3 NNE 24 28 13 15 1019.6 1019.6 0.0
20/01:00pm 25.2 23.0 16.9 60 5.1 N 24 30 13 16 1020.0 1020.0 0.0
20/12:30pm 24.6 22.7 16.6 61 4.9 NNE 22 28 12 15 1020.5 1020.5 0.0
20/12:00pm 23.9 21.7 16.9 65 4.3 N 24 28 13 15 1020.8 1020.8 0.0
20/11:30am 24.1 23.0 16.4 62 4.7 N 17 22 9 12 1021.1 1021.1 0.0
20/11:00am 23.4 22.4 15.5 61 4.7 N 15 20 8 11 1021.4 1021.4 0.0
20/10:30am 23.4 23.2 15.7 62 4.6 N 11 17 6 9 1021.6 1021.6 0.0
20/10:00am 22.9 21.8 15.2 62 4.6 N 15 19 8 10 1021.7 1021.7 0.0
20/09:30am 23.0 23.0 16.3 66 4.1 N 11 17 6 9 1022.0 1022.0 0.0
20/09:00am 22.7 23.2 15.5 64 4.3 NW 7 13 4 7 1021.9 1021.9 0.0
20/08:30am 20.7 21.7 16.3 76 2.6 WSW 6 7 3 4 1021.9 1021.9 0.0
20/08:00am 18.7 21.0 16.7 88 1.2 CALM 0 0 0 0 1021.9 1021.9 0.0
20/07:30am 17.8 19.6 16.5 92 0.8 SW 2 6 1 3 1021.8 1021.8 0.0
20/07:00am 16.7 18.3 15.9 95 0.5 SW 2 7 1 4 1021.8 1021.8 0.0
20/06:30am 16.2 17.9 15.2 94 0.6 CALM 0 0 0 0 1021.6 1021.6 0.0
20/06:00am 15.9 17.5 14.8 93 0.6 CALM 0 0 0 0 1021.5 1021.5 0.0
20/05:30am 16.0 17.5 14.7 92 0.7 CALM 0 0 0 0 1021.4 1021.4 0.0
20/05:00am 17.1 19.1 16.0 93 0.6 CALM 0 0 0 0 1021.2 1021.2 0.0
20/04:30am 17.0 18.1 15.5 91 0.9 SW 4 7 2 4 1021.2 1021.2 0.0
20/04:00am 17.5 17.7 15.8 90 1.0 SW 9 11 5 6 1021.3 1021.3 0.0
20/03:30am 17.7 18.1 16.2 91 0.9 WSW 9 15 5 8 1021.5 1021.5 0.0
20/03:00am 17.7 18.4 15.7 88 1.2 WSW 6 9 3 5 1021.9 1021.9 0.0
20/02:30am 18.7 19.4 15.6 82 1.8 W 6 9 3 5 1022.3 1022.3 0.0
20/02:00am 20.9 20.1 15.2 70 3.4 NNE 13 17 7 9 1022.6 1022.6 0.0
20/01:30am 21.1 19.5 15.0 68 3.6 NNE 17 19 9 10 1023.0 1023.0 0.0
20/01:00am 21.0 20.0 15.5 71 3.3 NNE 15 20 8 11 1023.5 1023.5 0.0
20/12:30am 21.3 19.9 15.6 70 3.4 NE 17 22 9 12 1023.8 1023.8 0.0
20/12:00am 21.1 20.0 15.2 69 3.5 NE 15 20 8 11 1024.2 1024.2 0.0
 
Date/Time
EDT
Temp
°C
App
Temp
°C
Dew
Point
°C
Rel
Hum
%
Delta-T
°C
Wind Press
QNH
hPa
Press
MSL
hPa
Rain since
9am
mm
Dir  Spd
km/h
Gust
km/h
Spd
kts
Gust
kts
19/11:30pm 21.5 20.6 15.8 70 3.4 NNE 15 20 8 11 1024.4 1024.4 0.0
19/11:00pm 21.2 19.6 15.1 68 3.6 NE 17 20 9 11 1024.5 1024.5 0.0
19/10:30pm 21.3 19.9 15.6 70 3.4 NE 17 20 9 11 1024.8 1024.8 0.0
19/10:00pm 21.4 20.1 15.9 71 3.3 NE 17 22 9 12 1025.0 1025.0 0.0
19/09:30pm 21.5 20.0 15.3 68 3.7 NE 17 22 9 12 1025.0 1025.0 0.0
19/09:00pm 21.5 19.9 15.1 67 3.8 NE 17 20 9 11 1024.7 1024.7 0.0
19/08:30pm 21.7 19.9 15.5 68 3.7 NE 19 24 10 13 1024.6 1024.6 0.0
19/08:00pm 21.9 20.3 15.0 65 4.1 NE 17 22 9 12 1024.5 1024.5 0.0
19/07:30pm 22.0 20.6 14.4 62 4.5 NE 15 20 8 11 1024.4 1024.4 0.0
19/07:00pm 22.1 21.0 14.2 61 4.6 NE 13 17 7 9 1024.2 1024.2 0.0
19/06:30pm 22.2 20.5 13.5 57 5.0 NE 15 17 8 9 1023.9 1023.9 0.0
19/06:00pm 22.4 21.0 14.5 61 4.6 ENE 15 20 8 11 1023.7 1023.7 0.0
19/05:30pm 22.9 20.9 13.9 57 5.3 ENE 17 20 9 11 1023.5 1023.5 0.0
19/05:00pm 22.9 20.7 14.5 59 4.9 ENE 19 22 10 12 1023.5 1023.5 0.0
19/04:30pm 23.6 21.2 13.8 54 5.7 ENE 19 24 10 13 1023.6 1023.6 0.0
19/04:00pm 23.5 21.4 14.8 58 5.1 NE 19 24 10 13 1023.7 1023.7 0.0
19/03:30pm 23.9 21.8 14.6 56 5.5 ENE 19 24 10 13 1024.0 1024.0 0.0
19/03:00pm 23.6 21.1 14.0 55 5.6 NE 20 26 11 14 1024.2 1024.2 0.0
19/02:30pm 24.4 21.8 13.9 52 6.2 ENE 20 26 11 14 1024.6 1024.6 0.0
19/02:00pm 25.2 22.8 15.5 55 5.8 ENE 22 28 12 15 1024.9 1024.9 0.0
19/01:30pm 24.4 22.0 15.3 57 5.5 ENE 22 30 12 16 1025.2 1025.2 0.0
19/01:00pm 24.1 21.3 14.2 54 5.8 ENE 22 28 12 15 1025.3 1025.3 0.0
19/12:30pm 24.5 21.4 13.4 50 6.5 ENE 22 28 12 15 1025.5 1025.5 0.0
19/12:00pm 24.3 21.9 14.4 54 5.8 ENE 20 26 11 14 1025.7 1025.7 0.0
19/11:30am 23.9 21.2 14.6 56 5.5 ENE 22 28 12 15 1026.0 1026.0 0.0
19/11:00am 24.0 21.5 15.2 58 5.2 ENE 22 28 12 15 1026.2 1026.2 0.0
19/10:30am 23.2 21.1 15.3 61 4.7 ENE 20 26 11 14 1026.5 1026.5 0.0
19/10:00am 23.2 20.9 15.8 63 4.4 ENE 22 28 12 15 1026.6 1026.6 1.0
19/09:30am 23.8 21.3 16.1 62 4.7 E 24 32 13 17 1026.5 1026.5 1.0
19/09:00am 23.1 20.7 15.4 62 4.6 ENE 22 30 12 16 1026.5 1026.5 1.0
19/08:30am 23.1 20.4 14.7 59 5.0 E 22 32 12 17 1026.4 1026.4 1.0
19/08:00am 22.8 19.7 14.6 60 4.8 E 24 33 13 18 1026.2 1026.2 1.0
19/07:30am 21.9 19.9 15.5 67 3.8 E 20 28 11 15 1026.1 1026.1 1.0
19/07:00am 21.3 19.3 15.4 69 3.5 ESE 20 28 11 15 1025.9 1025.9 1.0
19/06:30am 20.9 18.8 14.8 68 3.6 E 19 28 10 15 1025.8 1025.8 1.0
19/06:00am 20.7 19.0 15.7 73 3.0 E 19 24 10 13 1025.6 1025.6 1.0
19/05:30am 20.7 18.7 15.0 70 3.4 E 19 26 10 14 1025.4 1025.4 1.0
19/05:00am 20.7 18.7 15.5 72 3.1 E 20 28 11 15 1025.2 1025.2 1.0
19/04:30am 20.6 18.8 15.6 73 3.0 ESE 19 26 10 14 1025.0 1025.0 1.0
19/04:00am 20.3 18.2 15.1 72 3.0 ESE 20 26 11 14 1025.1 1025.1 1.0
19/03:30am 20.4 17.7 14.7 70 3.3 ESE 22 30 12 16 1025.2 1025.2 1.0
19/03:00am 20.7 18.5 14.8 69 3.4 ESE 20 30 11 16 1025.2 1025.2 1.0
19/02:30am 20.8 18.5 14.0 65 3.9 ESE 19 26 10 14 1025.6 1025.6 1.0
19/02:00am 20.7 18.4 14.1 66 3.8 ESE 19 26 10 14 1025.9 1025.9 1.0
19/01:30am 20.6 18.5 14.7 69 3.5 ESE 19 26 10 14 1026.1 1026.1 1.0
19/01:00am 20.7 18.3 14.4 67 3.7 E 20 28 11 15 1026.4 1026.4 1.0
19/12:30am 20.6 18.9 14.7 69 3.5 ESE 17 22 9 12 1026.8 1026.8 1.0
19/12:00am 20.7 18.1 14.8 69 3.4 E 22 33 12 18 1026.9 1026.9 1.0
 
Date/Time
EDT
Temp
°C
App
Temp
°C
Dew
Point
°C
Rel
Hum
%
Delta-T
°C
Wind Press
QNH
hPa
Press
MSL
hPa
Rain since
9am
mm
Dir  Spd
km/h
Gust
km/h
Spd
kts
Gust
kts
18/11:30pm 20.7 18.1 15.0 70 3.4 E 22 30 12 16 1027.1 1027.1 1.0
18/11:00pm 20.7 18.6 15.3 71 3.2 E 20 33 11 18 1027.1 1027.1 1.0
18/10:30pm 20.9 18.0 15.0 69 3.5 ESE 24 32 13 17 1027.1 1027.1 1.0
18/10:00pm 20.5 17.1 14.8 70 3.3 E 26 33 14 18 1027.1 1027.1 1.0
18/09:30pm 20.6 17.6 14.7 69 3.5 E 24 33 13 18 1026.9 1026.9 1.0
18/09:00pm 20.2 17.9 15.8 76 2.6 ESE 22 32 12 17 1026.7 1026.7 1.0
18/08:30pm 19.7 18.2 16.3 81 2.0 E 19 26 10 14 1026.4 1026.4 1.0
18/08:00pm 19.9 15.6 15.5 76 2.6 ESE 32 41 17 22 1026.1 1026.1 1.0
18/07:30pm 20.7 16.4 15.5 72 3.1 ESE 32 43 17 23 1025.5 1025.5 1.0
18/07:00pm 20.8 17.4 15.8 73 3.0 ESE 28 41 15 22 1025.2 1025.2 1.0
18/06:30pm 20.5 17.4 15.7 74 2.9 ESE 26 35 14 19 1025.0 1025.0 1.0
18/06:02pm 20.2 17.3 16.2 78 2.4 ESE 26 35 14 19 1024.7 1024.7 1.0
18/06:00pm 20.0 17.1 16.2 79 2.3 ESE 26 37 14 20 1024.7 1024.7 1.0
18/05:44pm 19.6 15.8 16.6 83 1.8 ESE 32 43 17 23 1024.8 1024.8 0.8
18/05:30pm 20.4 16.6 15.8 75 2.7 SE 30 39 16 21 1024.6 1024.6 0.8
18/05:00pm 20.3 16.6 15.9 76 2.6 ESE 30 37 16 20 1024.6 1024.6 0.8
18/04:30pm 21.4 18.4 15.9 71 3.3 ESE 26 35 14 19 1024.6 1024.6 0.8
18/04:00pm 21.6 18.3 16.1 71 3.3 ESE 28 37 15 20 1024.7 1024.7 0.8
18/03:30pm 21.6 18.5 15.7 69 3.5 ESE 26 35 14 19 1024.9 1024.9 0.8
18/03:00pm 21.2 17.4 17.2 78 2.4 ESE 33 43 18 23 1025.3 1025.3 0.8
18/02:30pm 20.9 19.3 17.5 81 2.1 SE 22 37 12 20 1025.3 1025.3 0.8
18/02:27pm 20.5 19.7 17.9 85 1.6 SE 19 28 10 15 1025.4 1025.4 0.8
18/02:01pm 19.9 16.6 17.1 84 1.7 ESE 30 39 16 21 1025.9 1025.9 0.2
18/02:00pm 19.9 16.6 16.9 83 1.8 ESE 30 39 16 21 1025.9 1025.9 0.2
18/01:52pm 21.6 19.0 15.9 70 3.4 ESE 24 39 13 21 1025.8 1025.8 0.2
18/01:38pm 20.4 15.8 16.2 77 2.5 ESE 35 48 19 26 1026.0 1026.0 0.2
18/01:31pm 22.1 18.2 15.5 66 3.9 ESE 30 48 16 26 1026.1 1026.1 0.2
18/01:30pm 22.9 19.3 16.2 66 4.1 ESE 30 43 16 23 1026.0 1026.0 0.2
18/01:00pm 22.9 17.7 15.5 63 4.4 ESE 37 50 20 27 1026.0 1026.0 0.2
18/12:30pm 22.9 18.8 16.0 65 4.2 ESE 32 48 17 26 1026.0 1026.0 0.2
18/12:00pm 22.4 18.2 15.7 66 4.0 ESE 32 43 17 23 1026.2 1026.2 0.2
18/11:30am 22.0 17.8 16.1 69 3.6 ESE 33 44 18 24 1026.2 1026.2 0.2
18/11:00am 22.1 19.3 17.2 74 3.0 ESE 28 41 15 22 1026.2 1026.2 0.2
18/10:37am 20.2 16.9 17.0 82 1.9 ESE 30 41 16 22 1026.3 1026.3 0.2
18/10:30am 20.1 17.2 17.1 83 1.8 ESE 28 41 15 22 1026.4 1026.4 0.2
18/10:22am 20.0 16.8 17.2 84 1.7 ESE 30 43 16 23 1026.3 1026.3 0.0
18/10:00am 22.3 18.7 16.3 69 3.6 ESE 30 43 16 23 1026.1 1026.1 1.4
18/09:30am 20.5 17.5 16.7 79 2.3 E 28 39 15 21 1026.0 1026.0 1.4
18/09:00am 21.1 17.9 17.3 79 2.3 ESE 30 41 16 22 1025.6 1025.6 1.4
18/08:30am 21.1 18.4 16.7 76 2.7 ESE 26 35 14 19 1025.3 1025.3 1.4
18/08:18am 20.4 17.5 16.2 77 2.5 ESE 26 35 14 19 1025.3 1025.3 1.4
18/08:05am 19.3 16.1 16.2 82 1.9 ESE 28 39 15 21 1025.2 1025.2 1.4
18/08:00am 19.5 16.2 16.0 80 2.1 SE 28 39 15 21 1025.2 1025.2 1.4
18/07:30am 21.1 17.9 16.3 74 2.9 ESE 28 39 15 21 1024.8 1024.8 1.4
18/07:00am 21.0 18.1 16.2 74 2.9 ESE 26 35 14 19 1024.5 1024.5 1.4
18/06:30am 20.7 17.5 16.3 76 2.6 ESE 28 35 15 19 1024.1 1024.1 1.4
18/06:00am 20.8 17.9 16.2 75 2.8 ESE 26 41 14 22 1023.6 1023.6 1.4
18/05:30am 20.0 18.0 16.4 80 2.2 SE 22 30 12 16 1023.4 1023.4 1.4
18/05:00am 20.6 17.7 16.2 76 2.6 ESE 26 33 14 18 1023.2 1023.2 1.4
18/04:30am 20.2 16.4 15.8 76 2.6 ESE 30 39 16 21 1023.1 1023.1 1.4
18/04:00am 20.7 16.8 15.5 72 3.1 ESE 30 41 16 22 1023.2 1023.2 1.4
18/03:30am 20.7 17.3 15.9 74 2.9 ESE 28 39 15 21 1023.1 1023.1 1.4
18/03:00am 20.7 17.7 15.9 74 2.9 ESE 26 35 14 19 1023.0 1023.0 1.4
18/02:30am 20.6 18.0 16.0 75 2.8 ESE 24 33 13 18 1023.1 1023.1 1.4
18/02:00am 20.6 17.3 16.0 75 2.7 ESE 28 39 15 21 1023.5 1023.5 1.4
18/01:30am 20.7 17.5 16.3 76 2.6 ESE 28 35 15 19 1024.0 1024.0 1.4
18/01:00am 20.5 17.4 15.7 74 2.8 ESE 26 37 14 20 1024.2 1024.2 1.4
18/12:30am 20.6 17.7 16.2 76 2.6 ESE 26 35 14 19 1024.5 1024.5 1.4
18/12:00am 20.6 17.1 16.4 77 2.5 ESE 30 39 16 21 1024.9 1024.9 1.4
 
Date/Time
EDT
Temp
°C
App
Temp
°C
Dew
Point
°C
Rel
Hum
%
Delta-T
°C
Wind Press
QNH
hPa
Press
MSL
hPa
Rain since
9am
mm
Dir  Spd
km/h
Gust
km/h
Spd
kts
Gust
kts
17/11:30pm 20.4 18.0 16.4 78 2.4 ESE 24 33 13 18 1024.9 1024.9 1.4
17/11:00pm 20.2 16.9 16.0 77 2.5 ESE 28 35 15 19 1024.8 1024.8 1.4
17/10:45pm 19.8 17.3 17.0 84 1.7 ESE 26 41 14 22 1024.5 1024.5 1.4
17/10:32pm 19.5 15.5 16.7 84 1.7 ESE 33 43 18 23 1024.5 1024.5 1.4
17/10:30pm 19.5 15.3 16.3 82 1.9 ESE 33 43 18 23 1024.5 1024.5 1.2
17/10:00pm 20.8 16.5 15.8 73 3.0 ESE 33 41 18 22 1024.5 1024.5 1.2
17/09:30pm 20.7 17.4 16.1 75 2.8 ESE 28 39 15 21 1024.6 1024.6 1.2
17/09:00pm 20.8 17.4 15.8 73 3.0 ESE 28 39 15 21 1024.4 1024.4 1.2
17/08:30pm 20.5 16.8 15.9 75 2.7 ESE 30 41 16 22 1024.3 1024.3 1.2
17/08:00pm 20.5 16.3 15.7 74 2.8 ESE 32 48 17 26 1024.0 1024.0 1.2
17/07:59pm 20.6 16.7 15.6 73 3.0 ESE 30 48 16 26 1023.9 1023.9 1.2
17/07:30pm 20.7 17.0 15.9 74 2.9 ESE 30 41 16 22 1023.7 1023.7 1.2
17/07:00pm 20.8 17.4 15.8 73 3.0 ESE 28 35 15 19 1023.4 1023.4 1.2
17/06:30pm 20.7 16.5 15.7 73 3.0 ESE 32 39 17 21 1023.1 1023.1 1.2
17/06:12pm 20.7 15.9 15.7 73 3.0 ESE 35 56 19 30 1022.8 1022.8 1.2
17/06:00pm 20.7 16.5 15.7 73 3.0 ESE 32 43 17 23 1022.9 1022.9 1.2
17/05:30pm 20.4 16.7 16.0 76 2.6 SE 30 43 16 23 1022.7 1022.7 1.2

Other Formats:

Comma delimited format used in spreadsheet applications
http://www.bom.gov.au/fwo/IDN60801/IDN60801.94592.axf

JavaScript Object Notation format (JSON) in row-major order
http://www.bom.gov.au/fwo/IDN60801/IDN60801.94592.json